sensor_id;sensor_type;location;lat;lon;timestamp;P1;durP1;ratioP1;P2;durP2;ratioP2
4903;SDS011;2467;48.142;11.616;2023-05-10T00:00:16;1.65;;;1.35;;
4903;SDS011;2467;48.142;11.616;2023-05-10T00:00:49;1.10;;;1.10;;
4903;SDS011;2467;48.142;11.616;2023-05-10T00:01:21;1.55;;;1.45;;
4903;SDS011;2467;48.142;11.616;2023-05-10T00:01:53;1.23;;;1.13;;
4903;SDS011;2467;48.142;11.616;2023-05-10T00:02:25;1.27;;;1.17;;
4903;SDS011;2467;48.142;11.616;2023-05-10T00:02:57;1.80;;;1.70;;
4903;SDS011;2467;48.142;11.616;2023-05-10T00:03:30;1.65;;;1.55;;
4903;SDS011;2467;48.142;11.616;2023-05-10T00:04:02;2.17;;;1.27;;
4903;SDS011;2467;48.142;11.616;2023-05-10T00:04:35;1.65;;;1.55;;
4903;SDS011;2467;48.142;11.616;2023-05-10T00:05:08;1.63;;;1.52;;
4903;SDS011;2467;48.142;11.616;2023-05-10T00:05:40;3.35;;;1.70;;
4903;SDS011;2467;48.142;11.616;2023-05-10T00:06:11;1.58;;;1.48;;
4903;SDS011;2467;48.142;11.616;2023-05-10T00:06:44;1.30;;;1.30;;
4903;SDS011;2467;48.142;11.616;2023-05-10T00:07:16;1.38;;;1.35;;
4903;SDS011;2467;48.142;11.616;2023-05-10T00:07:48;1.20;;;1.10;;
4903;SDS011;2467;48.142;11.616;2023-05-10T00:08:21;1.63;;;1.52;;
4903;SDS011;2467;48.142;11.616;2023-05-10T00:08:53;2.03;;;1.92;;
4903;SDS011;2467;48.142;11.616;2023-05-10T00:09:25;1.27;;;1.17;;
4903;SDS011;2467;48.142;11.616;2023-05-10T00:09:57;1.60;;;1.50;;
4903;SDS011;2467;48.142;11.616;2023-05-10T00:10:29;3.63;;;1.33;;
4903;SDS011;2467;48.142;11.616;2023-05-10T00:11:01;1.33;;;1.25;;
4903;SDS011;2467;48.142;11.616;2023-05-10T00:11:34;2.42;;;2.22;;
4903;SDS011;2467;48.142;11.616;2023-05-10T00:12:06;1.60;;;1.50;;
4903;SDS011;2467;48.142;11.616;2023-05-10T00:12:38;1.63;;;1.50;;
4903;SDS011;2467;48.142;11.616;2023-05-10T00:13:11;1.50;;;1.40;;
4903;SDS011;2467;48.142;11.616;2023-05-10T00:13:43;2.45;;;1.50;;
4903;SDS011;2467;48.142;11.616;2023-05-10T00:14:15;1.25;;;1.15;;
4903;SDS011;2467;48.142;11.616;2023-05-10T00:14:47;2.05;;;1.50;;
4903;SDS011;2467;48.142;11.616;2023-05-10T00:15:21;1.33;;;1.23;;
4903;SDS011;2467;48.142;11.616;2023-05-10T00:15:53;1.30;;;1.20;;
4903;SDS011;2467;48.142;11.616;2023-05-10T00:16:25;1.60;;;1.50;;
4903;SDS011;2467;48.142;11.616;2023-05-10T00:16:57;2.90;;;1.15;;
4903;SDS011;2467;48.142;11.616;2023-05-10T00:17:29;1.45;;;1.35;;
4903;SDS011;2467;48.142;11.616;2023-05-10T00:18:02;1.63;;;1.52;;
4903;SDS011;2467;48.142;11.616;2023-05-10T00:18:34;1.50;;;1.42;;
4903;SDS011;2467;48.142;11.616;2023-05-10T00:19:06;2.95;;;2.10;;
4903;SDS011;2467;48.142;11.616;2023-05-10T00:19:39;1.48;;;1.38;;
4903;SDS011;2467;48.142;11.616;2023-05-10T00:20:11;1.65;;;1.55;;
4903;SDS011;2467;48.142;11.616;2023-05-10T00:20:43;1.58;;;1.48;;
4903;SDS011;2467;48.142;11.616;2023-05-10T00:21:17;1.90;;;1.80;;
4903;SDS011;2467;48.142;11.616;2023-05-10T00:21:49;1.50;;;1.40;;
4903;SDS011;2467;48.142;11.616;2023-05-10T00:22:21;1.70;;;1.60;;
4903;SDS011;2467;48.142;11.616;2023-05-10T00:22:53;1.45;;;1.30;;
4903;SDS011;2467;48.142;11.616;2023-05-10T00:23:25;2.47;;;1.30;;
4903;SDS011;2467;48.142;11.616;2023-05-10T00:23:58;1.33;;;1.30;;
4903;SDS011;2467;48.142;11.616;2023-05-10T00:24:30;1.00;;;1.00;;
4903;SDS011;2467;48.142;11.616;2023-05-10T00:25:01;1.85;;;1.10;;
4903;SDS011;2467;48.142;11.616;2023-05-10T00:25:34;1.15;;;1.15;;
4903;SDS011;2467;48.142;11.616;2023-05-10T00:26:06;1.30;;;1.15;;
4903;SDS011;2467;48.142;11.616;2023-05-10T00:26:38;2.97;;;1.50;;
4903;SDS011;2467;48.142;11.616;2023-05-10T00:27:11;1.63;;;1.50;;
4903;SDS011;2467;48.142;11.616;2023-05-10T00:27:43;1.60;;;1.30;;
4903;SDS011;2467;48.142;11.616;2023-05-10T00:28:15;1.88;;;1.65;;
4903;SDS011;2467;48.142;11.616;2023-05-10T00:28:48;1.50;;;1.40;;
4903;SDS011;2467;48.142;11.616;2023-05-10T00:29:20;1.63;;;1.30;;
4903;SDS011;2467;48.142;11.616;2023-05-10T00:29:52;1.40;;;1.30;;
4903;SDS011;2467;48.142;11.616;2023-05-10T00:30:26;1.60;;;1.50;;
4903;SDS011;2467;48.142;11.616;2023-05-10T00:30:58;2.60;;;1.30;;
4903;SDS011;2467;48.142;11.616;2023-05-10T00:31:30;1.30;;;1.30;;
4903;SDS011;2467;48.142;11.616;2023-05-10T00:32:03;1.60;;;1.50;;
4903;SDS011;2467;48.142;11.616;2023-05-10T00:32:35;1.35;;;1.25;;
4903;SDS011;2467;48.142;11.616;2023-05-10T00:33:07;1.23;;;1.13;;
4903;SDS011;2467;48.142;11.616;2023-05-10T00:33:39;1.48;;;1.30;;
4903;SDS011;2467;48.142;11.616;2023-05-10T00:34:12;1.30;;;1.20;;
4903;SDS011;2467;48.142;11.616;2023-05-10T00:34:43;1.33;;;1.23;;
4903;SDS011;2467;48.142;11.616;2023-05-10T00:35:15;1.50;;;1.40;;
4903;SDS011;2467;48.142;11.616;2023-05-10T00:35:48;1.48;;;1.38;;
4903;SDS011;2467;48.142;11.616;2023-05-10T00:36:20;1.63;;;1.27;;
4903;SDS011;2467;48.142;11.616;2023-05-10T00:36:52;1.00;;;1.00;;
4903;SDS011;2467;48.142;11.616;2023-05-10T00:37:25;1.00;;;0.93;;
4903;SDS011;2467;48.142;11.616;2023-05-10T00:37:57;1.00;;;1.00;;
4903;SDS011;2467;48.142;11.616;2023-05-10T00:38:28;1.77;;;1.67;;
4903;SDS011;2467;48.142;11.616;2023-05-10T00:39:01;1.55;;;1.45;;
4903;SDS011;2467;48.142;11.616;2023-05-10T00:39:34;1.27;;;1.17;;
4903;SDS011;2467;48.142;11.616;2023-05-10T00:40:06;1.42;;;1.33;;
4903;SDS011;2467;48.142;11.616;2023-05-10T00:40:39;1.08;;;1.05;;
4903;SDS011;2467;48.142;11.616;2023-05-10T00:41:11;1.10;;;1.00;;
4903;SDS011;2467;48.142;11.616;2023-05-10T00:41:43;1.27;;;1.15;;
4903;SDS011;2467;48.142;11.616;2023-05-10T00:42:16;2.10;;;1.50;;
4903;SDS011;2467;48.142;11.616;2023-05-10T00:42:48;1.30;;;1.15;;
4903;SDS011;2467;48.142;11.616;2023-05-10T00:43:20;1.48;;;1.38;;
4903;SDS011;2467;48.142;11.616;2023-05-10T00:43:53;1.13;;;1.02;;
4903;SDS011;2467;48.142;11.616;2023-05-10T00:44:25;1.30;;;1.05;;
4903;SDS011;2467;48.142;11.616;2023-05-10T00:44:57;1.17;;;1.08;;
4903;SDS011;2467;48.142;11.616;2023-05-10T00:45:30;0.85;;;0.85;;
4903;SDS011;2467;48.142;11.616;2023-05-10T00:46:04;1.35;;;1.25;;
4903;SDS011;2467;48.142;11.616;2023-05-10T00:46:36;0.80;;;0.80;;
4903;SDS011;2467;48.142;11.616;2023-05-10T00:47:08;1.70;;;1.60;;
4903;SDS011;2467;48.142;11.616;2023-05-10T00:47:42;1.30;;;1.13;;
4903;SDS011;2467;48.142;11.616;2023-05-10T00:48:14;1.13;;;1.13;;
4903;SDS011;2467;48.142;11.616;2023-05-10T00:48:46;0.98;;;0.98;;
4903;SDS011;2467;48.142;11.616;2023-05-10T00:49:19;0.77;;;0.77;;
4903;SDS011;2467;48.142;11.616;2023-05-10T00:49:52;1.10;;;1.00;;
4903;SDS011;2467;48.142;11.616;2023-05-10T00:50:24;1.17;;;1.08;;
4903;SDS011;2467;48.142;11.616;2023-05-10T00:50:57;1.48;;;1.38;;
4903;SDS011;2467;48.142;11.616;2023-05-10T00:51:29;0.90;;;0.90;;
4903;SDS011;2467;48.142;11.616;2023-05-10T00:52:02;1.10;;;1.10;;
4903;SDS011;2467;48.142;11.616;2023-05-10T00:52:35;3.25;;;1.70;;
4903;SDS011;2467;48.142;11.616;2023-05-10T00:53:07;1.17;;;1.17;;
4903;SDS011;2467;48.142;11.616;2023-05-10T00:53:39;1.20;;;1.10;;
4903;SDS011;2467;48.142;11.616;2023-05-10T00:54:14;1.23;;;1.10;;
4903;SDS011;2467;48.142;11.616;2023-05-10T00:54:46;0.90;;;0.90;;
4903;SDS011;2467;48.142;11.616;2023-05-10T00:55:19;0.75;;;0.75;;
4903;SDS011;2467;48.142;11.616;2023-05-10T00:55:52;4.57;;;1.00;;
4903;SDS011;2467;48.142;11.616;2023-05-10T00:56:25;0.93;;;0.93;;
4903;SDS011;2467;48.142;11.616;2023-05-10T00:56:57;1.20;;;1.10;;
4903;SDS011;2467;48.142;11.616;2023-05-10T00:57:30;1.02;;;0.93;;
4903;SDS011;2467;48.142;11.616;2023-05-10T00:58:02;1.20;;;1.02;;
4903;SDS011;2467;48.142;11.616;2023-05-10T00:58:35;1.13;;;0.90;;
4903;SDS011;2467;48.142;11.616;2023-05-10T00:59:08;0.90;;;0.90;;
4903;SDS011;2467;48.142;11.616;2023-05-10T00:59:40;0.90;;;0.90;;
4903;SDS011;2467;48.142;11.616;2023-05-10T01:00:12;0.80;;;0.80;;
4903;SDS011;2467;48.142;11.616;2023-05-10T01:00:50;1.92;;;1.00;;
4903;SDS011;2467;48.142;11.616;2023-05-10T01:01:23;1.58;;;1.02;;
4903;SDS011;2467;48.142;11.616;2023-05-10T01:01:55;1.10;;;1.10;;
4903;SDS011;2467;48.142;11.616;2023-05-10T01:02:29;0.95;;;0.95;;
4903;SDS011;2467;48.142;11.616;2023-05-10T01:03:01;1.20;;;1.10;;
4903;SDS011;2467;48.142;11.616;2023-05-10T01:03:34;1.30;;;1.20;;
4903;SDS011;2467;48.142;11.616;2023-05-10T01:04:08;0.98;;;0.93;;
4903;SDS011;2467;48.142;11.616;2023-05-10T01:04:42;0.80;;;0.80;;
4903;SDS011;2467;48.142;11.616;2023-05-10T01:05:14;1.13;;;1.13;;
4903;SDS011;2467;48.142;11.616;2023-05-10T01:05:47;0.80;;;0.80;;
4903;SDS011;2467;48.142;11.616;2023-05-10T01:06:19;1.45;;;1.35;;
4903;SDS011;2467;48.142;11.616;2023-05-10T01:06:51;0.82;;;0.82;;
4903;SDS011;2467;48.142;11.616;2023-05-10T01:07:24;0.70;;;0.70;;
4903;SDS011;2467;48.142;11.616;2023-05-10T01:07:56;2.10;;;0.95;;
4903;SDS011;2467;48.142;11.616;2023-05-10T01:08:28;1.35;;;1.25;;
4903;SDS011;2467;48.142;11.616;2023-05-10T01:09:01;1.38;;;0.95;;
4903;SDS011;2467;48.142;11.616;2023-05-10T01:09:33;1.00;;;1.00;;
4903;SDS011;2467;48.142;11.616;2023-05-10T01:10:05;0.77;;;0.77;;
4903;SDS011;2467;48.142;11.616;2023-05-10T01:10:39;1.20;;;1.10;;
4903;SDS011;2467;48.142;11.616;2023-05-10T01:11:11;1.00;;;0.90;;
4903;SDS011;2467;48.142;11.616;2023-05-10T01:11:43;0.80;;;0.80;;
4903;SDS011;2467;48.142;11.616;2023-05-10T01:12:17;1.70;;;0.90;;
4903;SDS011;2467;48.142;11.616;2023-05-10T01:12:49;1.02;;;0.85;;
4903;SDS011;2467;48.142;11.616;2023-05-10T01:13:25;0.82;;;0.80;;
4903;SDS011;2467;48.142;11.616;2023-05-10T01:14:03;0.70;;;0.70;;
4903;SDS011;2467;48.142;11.616;2023-05-10T01:14:37;0.98;;;0.95;;
4903;SDS011;2467;48.142;11.616;2023-05-10T01:15:09;1.30;;;0.70;;
4903;SDS011;2467;48.142;11.616;2023-05-10T01:15:43;0.93;;;0.90;;
4903;SDS011;2467;48.142;11.616;2023-05-10T01:16:17;1.02;;;1.02;;
4903;SDS011;2467;48.142;11.616;2023-05-10T01:16:49;1.45;;;0.73;;
4903;SDS011;2467;48.142;11.616;2023-05-10T01:17:22;0.88;;;0.82;;
4903;SDS011;2467;48.142;11.616;2023-05-10T01:17:54;0.90;;;0.90;;
4903;SDS011;2467;48.142;11.616;2023-05-10T01:18:27;0.70;;;0.70;;
4903;SDS011;2467;48.142;11.616;2023-05-10T01:19:01;0.90;;;0.80;;
4903;SDS011;2467;48.142;11.616;2023-05-10T01:19:34;1.00;;;1.00;;
4903;SDS011;2467;48.142;11.616;2023-05-10T01:20:09;2.05;;;1.00;;
4903;SDS011;2467;48.142;11.616;2023-05-10T01:20:43;0.77;;;0.77;;
4903;SDS011;2467;48.142;11.616;2023-05-10T01:21:23;0.85;;;0.85;;
4903;SDS011;2467;48.142;11.616;2023-05-10T01:22:05;0.95;;;0.80;;
4903;SDS011;2467;48.142;11.616;2023-05-10T01:24:09;0.90;;;0.90;;
4903;SDS011;2467;48.142;11.616;2023-05-10T01:26:12;0.85;;;0.85;;
4903;SDS011;2467;48.142;11.616;2023-05-10T01:27:01;1.25;;;0.90;;
4903;SDS011;2467;48.142;11.616;2023-05-10T01:27:47;1.20;;;1.10;;
4903;SDS011;2467;48.142;11.616;2023-05-10T01:28:42;1.20;;;0.63;;
4903;SDS011;2467;48.142;11.616;2023-05-10T01:29:46;1.05;;;0.80;;
4903;SDS011;2467;48.142;11.616;2023-05-10T01:32:48;0.60;;;0.60;;
4903;SDS011;2467;48.142;11.616;2023-05-10T01:33:28;0.63;;;0.63;;
4903;SDS011;2467;48.142;11.616;2023-05-10T01:34:07;1.15;;;0.70;;
4903;SDS011;2467;48.142;11.616;2023-05-10T01:34:41;1.75;;;0.80;;
4903;SDS011;2467;48.142;11.616;2023-05-10T01:35:21;0.80;;;0.65;;
4903;SDS011;2467;48.142;11.616;2023-05-10T01:36:00;0.50;;;0.50;;
4903;SDS011;2467;48.142;11.616;2023-05-10T01:36:39;1.58;;;1.48;;
4903;SDS011;2467;48.142;11.616;2023-05-10T01:37:18;0.60;;;0.60;;
4903;SDS011;2467;48.142;11.616;2023-05-10T01:37:58;0.60;;;0.60;;
4903;SDS011;2467;48.142;11.616;2023-05-10T01:38:38;0.60;;;0.60;;
4903;SDS011;2467;48.142;11.616;2023-05-10T01:39:15;0.70;;;0.70;;
4903;SDS011;2467;48.142;11.616;2023-05-10T01:39:55;1.10;;;1.00;;
4903;SDS011;2467;48.142;11.616;2023-05-10T01:40:35;0.80;;;0.80;;
4903;SDS011;2467;48.142;11.616;2023-05-10T01:41:13;1.08;;;0.60;;
4903;SDS011;2467;48.142;11.616;2023-05-10T01:41:49;0.68;;;0.65;;
4903;SDS011;2467;48.142;11.616;2023-05-10T01:42:26;1.50;;;0.50;;
4903;SDS011;2467;48.142;11.616;2023-05-10T01:43:03;1.33;;;0.65;;
4903;SDS011;2467;48.142;11.616;2023-05-10T01:43:45;0.80;;;0.80;;
4903;SDS011;2467;48.142;11.616;2023-05-10T01:44:27;0.55;;;0.50;;
4903;SDS011;2467;48.142;11.616;2023-05-10T01:45:07;1.30;;;0.70;;
4903;SDS011;2467;48.142;11.616;2023-05-10T01:45:47;1.25;;;0.50;;
4903;SDS011;2467;48.142;11.616;2023-05-10T01:46:28;1.15;;;0.60;;
4903;SDS011;2467;48.142;11.616;2023-05-10T01:47:08;1.50;;;0.70;;
4903;SDS011;2467;48.142;11.616;2023-05-10T01:47:44;0.57;;;0.57;;
4903;SDS011;2467;48.142;11.616;2023-05-10T01:48:21;0.73;;;0.73;;
4903;SDS011;2467;48.142;11.616;2023-05-10T01:48:58;0.90;;;0.65;;
4903;SDS011;2467;48.142;11.616;2023-05-10T01:49:32;1.33;;;1.02;;
4903;SDS011;2467;48.142;11.616;2023-05-10T01:50:09;1.40;;;0.50;;
4903;SDS011;2467;48.142;11.616;2023-05-10T01:50:47;0.75;;;0.50;;
4903;SDS011;2467;48.142;11.616;2023-05-10T01:51:22;0.98;;;0.88;;
4903;SDS011;2467;48.142;11.616;2023-05-10T01:51:59;0.80;;;0.80;;
4903;SDS011;2467;48.142;11.616;2023-05-10T01:52:36;0.90;;;0.68;;
4903;SDS011;2467;48.142;11.616;2023-05-10T01:53:17;1.38;;;0.70;;
4903;SDS011;2467;48.142;11.616;2023-05-10T01:53:51;0.80;;;0.80;;
4903;SDS011;2467;48.142;11.616;2023-05-10T01:54:26;0.75;;;0.63;;
4903;SDS011;2467;48.142;11.616;2023-05-10T01:55:00;1.77;;;0.70;;
4903;SDS011;2467;48.142;11.616;2023-05-10T01:55:38;0.52;;;0.52;;
4903;SDS011;2467;48.142;11.616;2023-05-10T01:56:15;0.65;;;0.63;;
4903;SDS011;2467;48.142;11.616;2023-05-10T01:56:52;1.23;;;0.63;;
4903;SDS011;2467;48.142;11.616;2023-05-10T01:57:31;0.50;;;0.50;;
4903;SDS011;2467;48.142;11.616;2023-05-10T01:58:07;0.50;;;0.40;;
4903;SDS011;2467;48.142;11.616;2023-05-10T01:58:43;1.17;;;1.08;;
4903;SDS011;2467;48.142;11.616;2023-05-10T01:59:18;0.80;;;0.80;;
4903;SDS011;2467;48.142;11.616;2023-05-10T01:59:51;1.38;;;0.77;;
4903;SDS011;2467;48.142;11.616;2023-05-10T02:00:24;0.77;;;0.77;;
4903;SDS011;2467;48.142;11.616;2023-05-10T02:00:59;0.75;;;0.70;;
4903;SDS011;2467;48.142;11.616;2023-05-10T02:01:34;0.70;;;0.63;;
4903;SDS011;2467;48.142;11.616;2023-05-10T02:02:09;0.70;;;0.70;;
4903;SDS011;2467;48.142;11.616;2023-05-10T02:02:46;0.80;;;0.80;;
4903;SDS011;2467;48.142;11.616;2023-05-10T02:03:20;0.63;;;0.63;;
4903;SDS011;2467;48.142;11.616;2023-05-10T02:03:55;0.73;;;0.70;;
4903;SDS011;2467;48.142;11.616;2023-05-10T02:04:29;1.58;;;0.90;;
4903;SDS011;2467;48.142;11.616;2023-05-10T02:05:01;0.80;;;0.60;;
4903;SDS011;2467;48.142;11.616;2023-05-10T02:05:35;0.75;;;0.75;;
4903;SDS011;2467;48.142;11.616;2023-05-10T02:06:09;1.20;;;1.10;;
4903;SDS011;2467;48.142;11.616;2023-05-10T02:06:44;0.80;;;0.80;;
4903;SDS011;2467;48.142;11.616;2023-05-10T02:07:18;0.43;;;0.43;;
4903;SDS011;2467;48.142;11.616;2023-05-10T02:07:52;1.00;;;0.80;;
4903;SDS011;2467;48.142;11.616;2023-05-10T02:08:24;0.75;;;0.75;;
4903;SDS011;2467;48.142;11.616;2023-05-10T02:08:57;0.60;;;0.60;;
4903;SDS011;2467;48.142;11.616;2023-05-10T02:09:29;1.10;;;0.70;;
4903;SDS011;2467;48.142;11.616;2023-05-10T02:10:04;1.30;;;1.02;;
4903;SDS011;2467;48.142;11.616;2023-05-10T02:10:39;0.50;;;0.50;;
4903;SDS011;2467;48.142;11.616;2023-05-10T02:11:12;1.05;;;0.80;;
4903;SDS011;2467;48.142;11.616;2023-05-10T02:11:45;0.70;;;0.70;;
4903;SDS011;2467;48.142;11.616;2023-05-10T02:12:18;0.70;;;0.60;;
4903;SDS011;2467;48.142;11.616;2023-05-10T02:12:52;0.95;;;0.70;;
4903;SDS011;2467;48.142;11.616;2023-05-10T02:13:25;0.82;;;0.68;;
4903;SDS011;2467;48.142;11.616;2023-05-10T02:13:59;0.88;;;0.60;;
4903;SDS011;2467;48.142;11.616;2023-05-10T02:14:34;1.45;;;0.68;;
4903;SDS011;2467;48.142;11.616;2023-05-10T02:15:07;1.08;;;0.75;;
4903;SDS011;2467;48.142;11.616;2023-05-10T02:15:41;0.98;;;0.90;;
4903;SDS011;2467;48.142;11.616;2023-05-10T02:16:16;0.90;;;0.90;;
4903;SDS011;2467;48.142;11.616;2023-05-10T02:16:49;0.88;;;0.80;;
4903;SDS011;2467;48.142;11.616;2023-05-10T02:17:23;1.30;;;0.88;;
4903;SDS011;2467;48.142;11.616;2023-05-10T02:17:59;1.88;;;0.80;;
4903;SDS011;2467;48.142;11.616;2023-05-10T02:18:32;1.10;;;1.00;;
4903;SDS011;2467;48.142;11.616;2023-05-10T02:19:06;0.90;;;0.90;;
4903;SDS011;2467;48.142;11.616;2023-05-10T02:19:40;1.08;;;0.98;;
4903;SDS011;2467;48.142;11.616;2023-05-10T02:20:14;0.80;;;0.80;;
4903;SDS011;2467;48.142;11.616;2023-05-10T02:20:49;1.02;;;0.70;;
4903;SDS011;2467;48.142;11.616;2023-05-10T02:21:24;0.90;;;0.90;;
4903;SDS011;2467;48.142;11.616;2023-05-10T02:21:58;1.17;;;0.70;;
4903;SDS011;2467;48.142;11.616;2023-05-10T02:22:31;0.90;;;0.85;;
4903;SDS011;2467;48.142;11.616;2023-05-10T02:23:06;0.70;;;0.70;;
4903;SDS011;2467;48.142;11.616;2023-05-10T02:23:40;0.60;;;0.60;;
4903;SDS011;2467;48.142;11.616;2023-05-10T02:24:12;1.05;;;0.73;;
4903;SDS011;2467;48.142;11.616;2023-05-10T02:24:47;0.70;;;0.70;;
4903;SDS011;2467;48.142;11.616;2023-05-10T02:25:21;0.70;;;0.70;;
4903;SDS011;2467;48.142;11.616;2023-05-10T02:25:54;0.60;;;0.60;;
4903;SDS011;2467;48.142;11.616;2023-05-10T02:26:28;0.60;;;0.60;;
4903;SDS011;2467;48.142;11.616;2023-05-10T02:27:01;1.55;;;0.90;;
4903;SDS011;2467;48.142;11.616;2023-05-10T02:27:34;0.60;;;0.60;;
4903;SDS011;2467;48.142;11.616;2023-05-10T02:28:09;0.80;;;0.80;;
4903;SDS011;2467;48.142;11.616;2023-05-10T02:28:43;0.60;;;0.60;;
4903;SDS011;2467;48.142;11.616;2023-05-10T02:29:16;0.68;;;0.68;;
4903;SDS011;2467;48.142;11.616;2023-05-10T02:29:50;0.93;;;0.70;;
4903;SDS011;2467;48.142;11.616;2023-05-10T02:30:23;0.80;;;0.80;;
4903;SDS011;2467;48.142;11.616;2023-05-10T02:30:56;0.70;;;0.70;;
4903;SDS011;2467;48.142;11.616;2023-05-10T02:31:30;1.08;;;0.68;;
4903;SDS011;2467;48.142;11.616;2023-05-10T02:32:03;1.15;;;0.70;;
4903;SDS011;2467;48.142;11.616;2023-05-10T02:32:35;0.65;;;0.65;;
4903;SDS011;2467;48.142;11.616;2023-05-10T02:33:11;1.02;;;0.88;;
4903;SDS011;2467;48.142;11.616;2023-05-10T02:33:43;0.73;;;0.73;;
4903;SDS011;2467;48.142;11.616;2023-05-10T02:34:17;0.70;;;0.70;;
4903;SDS011;2467;48.142;11.616;2023-05-10T02:34:50;1.05;;;0.90;;
4903;SDS011;2467;48.142;11.616;2023-05-10T02:35:24;1.33;;;0.85;;
4903;SDS011;2467;48.142;11.616;2023-05-10T02:35:58;0.52;;;0.52;;
4903;SDS011;2467;48.142;11.616;2023-05-10T02:36:31;0.80;;;0.80;;
4903;SDS011;2467;48.142;11.616;2023-05-10T02:37:04;0.90;;;0.70;;
4903;SDS011;2467;48.142;11.616;2023-05-10T02:37:37;1.02;;;0.75;;
4903;SDS011;2467;48.142;11.616;2023-05-10T02:38:10;0.98;;;0.93;;
4903;SDS011;2467;48.142;11.616;2023-05-10T02:38:44;0.80;;;0.80;;
4903;SDS011;2467;48.142;11.616;2023-05-10T02:39:18;0.60;;;0.60;;
4903;SDS011;2467;48.142;11.616;2023-05-10T02:39:52;1.38;;;0.75;;
4903;SDS011;2467;48.142;11.616;2023-05-10T02:40:26;0.88;;;0.88;;
4903;SDS011;2467;48.142;11.616;2023-05-10T02:40:59;0.60;;;0.60;;
4903;SDS011;2467;48.142;11.616;2023-05-10T02:41:32;0.75;;;0.68;;
4903;SDS011;2467;48.142;11.616;2023-05-10T02:42:04;1.08;;;0.98;;
4903;SDS011;2467;48.142;11.616;2023-05-10T02:42:37;0.50;;;0.50;;
4903;SDS011;2467;48.142;11.616;2023-05-10T02:43:12;0.93;;;0.80;;
4903;SDS011;2467;48.142;11.616;2023-05-10T02:43:46;0.70;;;0.70;;
4903;SDS011;2467;48.142;11.616;2023-05-10T02:44:21;0.90;;;0.73;;
4903;SDS011;2467;48.142;11.616;2023-05-10T02:44:57;0.85;;;0.85;;
4903;SDS011;2467;48.142;11.616;2023-05-10T02:45:33;0.90;;;0.90;;
4903;SDS011;2467;48.142;11.616;2023-05-10T02:46:06;1.85;;;1.10;;
4903;SDS011;2467;48.142;11.616;2023-05-10T02:46:38;1.55;;;1.45;;
4903;SDS011;2467;48.142;11.616;2023-05-10T02:47:10;0.90;;;0.90;;
4903;SDS011;2467;48.142;11.616;2023-05-10T02:47:43;0.60;;;0.60;;
4903;SDS011;2467;48.142;11.616;2023-05-10T02:48:16;0.88;;;0.60;;
4903;SDS011;2467;48.142;11.616;2023-05-10T02:48:48;0.90;;;0.60;;
4903;SDS011;2467;48.142;11.616;2023-05-10T02:49:21;2.00;;;0.90;;
4903;SDS011;2467;48.142;11.616;2023-05-10T02:49:53;0.73;;;0.73;;
4903;SDS011;2467;48.142;11.616;2023-05-10T02:50:25;1.00;;;0.65;;
4903;SDS011;2467;48.142;11.616;2023-05-10T02:51:00;0.82;;;0.80;;
4903;SDS011;2467;48.142;11.616;2023-05-10T02:51:37;0.95;;;0.85;;
4903;SDS011;2467;48.142;11.616;2023-05-10T02:52:13;1.58;;;0.80;;
4903;SDS011;2467;48.142;11.616;2023-05-10T02:52:51;1.25;;;0.80;;
4903;SDS011;2467;48.142;11.616;2023-05-10T02:53:28;0.93;;;0.50;;
4903;SDS011;2467;48.142;11.616;2023-05-10T02:54:06;1.15;;;1.00;;
4903;SDS011;2467;48.142;11.616;2023-05-10T02:54:43;2.90;;;0.95;;
4903;SDS011;2467;48.142;11.616;2023-05-10T02:55:16;0.80;;;0.80;;
4903;SDS011;2467;48.142;11.616;2023-05-10T02:55:53;1.70;;;0.75;;
4903;SDS011;2467;48.142;11.616;2023-05-10T02:56:31;1.70;;;0.77;;
4903;SDS011;2467;48.142;11.616;2023-05-10T02:57:05;0.80;;;0.75;;
4903;SDS011;2467;48.142;11.616;2023-05-10T02:57:40;1.38;;;1.25;;
4903;SDS011;2467;48.142;11.616;2023-05-10T02:58:15;1.67;;;1.05;;
4903;SDS011;2467;48.142;11.616;2023-05-10T02:58:50;0.93;;;0.93;;
4903;SDS011;2467;48.142;11.616;2023-05-10T02:59:23;1.20;;;1.10;;
4903;SDS011;2467;48.142;11.616;2023-05-10T02:59:55;1.08;;;1.08;;
4903;SDS011;2467;48.142;11.616;2023-05-10T03:00:27;1.33;;;1.23;;
4903;SDS011;2467;48.142;11.616;2023-05-10T03:01:00;1.88;;;1.17;;
4903;SDS011;2467;48.142;11.616;2023-05-10T03:01:32;1.30;;;1.20;;
4903;SDS011;2467;48.142;11.616;2023-05-10T03:02:04;2.05;;;1.30;;
4903;SDS011;2467;48.142;11.616;2023-05-10T03:02:37;2.05;;;1.17;;
4903;SDS011;2467;48.142;11.616;2023-05-10T03:03:09;1.30;;;1.00;;
4903;SDS011;2467;48.142;11.616;2023-05-10T03:03:42;0.85;;;0.85;;
4903;SDS011;2467;48.142;11.616;2023-05-10T03:04:15;1.70;;;0.70;;
4903;SDS011;2467;48.142;11.616;2023-05-10T03:04:47;1.08;;;0.90;;
4903;SDS011;2467;48.142;11.616;2023-05-10T03:05:19;1.08;;;0.80;;
4903;SDS011;2467;48.142;11.616;2023-05-10T03:05:52;0.60;;;0.60;;
4903;SDS011;2467;48.142;11.616;2023-05-10T03:06:26;0.70;;;0.70;;
4903;SDS011;2467;48.142;11.616;2023-05-10T03:06:59;0.63;;;0.63;;
4903;SDS011;2467;48.142;11.616;2023-05-10T03:07:32;0.70;;;0.70;;
4903;SDS011;2467;48.142;11.616;2023-05-10T03:08:05;1.67;;;0.80;;
4903;SDS011;2467;48.142;11.616;2023-05-10T03:08:37;1.05;;;0.95;;
4903;SDS011;2467;48.142;11.616;2023-05-10T03:09:10;1.42;;;1.00;;
4903;SDS011;2467;48.142;11.616;2023-05-10T03:09:43;1.95;;;1.02;;
4903;SDS011;2467;48.142;11.616;2023-05-10T03:10:16;0.70;;;0.70;;
4903;SDS011;2467;48.142;11.616;2023-05-10T03:10:55;1.90;;;1.27;;
4903;SDS011;2467;48.142;11.616;2023-05-10T03:11:39;1.42;;;0.80;;
4903;SDS011;2467;48.142;11.616;2023-05-10T03:12:27;0.80;;;0.63;;
4903;SDS011;2467;48.142;11.616;2023-05-10T03:13:12;1.55;;;1.20;;
4903;SDS011;2467;48.142;11.616;2023-05-10T03:13:49;0.75;;;0.73;;
4903;SDS011;2467;48.142;11.616;2023-05-10T03:14:34;0.93;;;0.70;;
4903;SDS011;2467;48.142;11.616;2023-05-10T03:15:18;0.60;;;0.60;;
4903;SDS011;2467;48.142;11.616;2023-05-10T03:15:57;1.98;;;1.05;;
4903;SDS011;2467;48.142;11.616;2023-05-10T03:16:35;1.20;;;0.75;;
4903;SDS011;2467;48.142;11.616;2023-05-10T03:17:15;1.00;;;1.00;;
4903;SDS011;2467;48.142;11.616;2023-05-10T03:17:55;0.90;;;0.90;;
4903;SDS011;2467;48.142;11.616;2023-05-10T03:18:36;0.70;;;0.70;;
4903;SDS011;2467;48.142;11.616;2023-05-10T03:19:16;0.50;;;0.50;;
4903;SDS011;2467;48.142;11.616;2023-05-10T03:19:53;1.10;;;0.70;;
4903;SDS011;2467;48.142;11.616;2023-05-10T03:20:29;0.70;;;0.50;;
4903;SDS011;2467;48.142;11.616;2023-05-10T03:21:03;0.90;;;0.90;;
4903;SDS011;2467;48.142;11.616;2023-05-10T03:21:39;0.50;;;0.50;;
4903;SDS011;2467;48.142;11.616;2023-05-10T03:22:18;1.05;;;0.70;;
4903;SDS011;2467;48.142;11.616;2023-05-10T03:22:59;0.88;;;0.60;;
4903;SDS011;2467;48.142;11.616;2023-05-10T03:23:34;0.60;;;0.60;;
4903;SDS011;2467;48.142;11.616;2023-05-10T03:24:12;1.15;;;0.57;;
4903;SDS011;2467;48.142;11.616;2023-05-10T03:24:46;0.80;;;0.80;;
4903;SDS011;2467;48.142;11.616;2023-05-10T03:25:20;0.77;;;0.75;;
4903;SDS011;2467;48.142;11.616;2023-05-10T03:25:54;1.05;;;0.90;;
4903;SDS011;2467;48.142;11.616;2023-05-10T03:26:27;0.75;;;0.68;;
4903;SDS011;2467;48.142;11.616;2023-05-10T03:27:00;1.27;;;0.88;;
4903;SDS011;2467;48.142;11.616;2023-05-10T03:27:34;2.53;;;0.95;;
4903;SDS011;2467;48.142;11.616;2023-05-10T03:28:11;1.10;;;0.88;;
4903;SDS011;2467;48.142;11.616;2023-05-10T03:28:44;0.50;;;0.50;;
4903;SDS011;2467;48.142;11.616;2023-05-10T03:29:18;0.90;;;0.90;;
4903;SDS011;2467;48.142;11.616;2023-05-10T03:29:54;0.70;;;0.70;;
4903;SDS011;2467;48.142;11.616;2023-05-10T03:30:27;0.95;;;0.60;;
4903;SDS011;2467;48.142;11.616;2023-05-10T03:31:00;0.60;;;0.50;;
4903;SDS011;2467;48.142;11.616;2023-05-10T03:31:33;0.60;;;0.60;;
4903;SDS011;2467;48.142;11.616;2023-05-10T03:32:05;1.70;;;0.70;;
4903;SDS011;2467;48.142;11.616;2023-05-10T03:32:40;1.25;;;0.50;;
4903;SDS011;2467;48.142;11.616;2023-05-10T03:33:13;0.82;;;0.52;;
4903;SDS011;2467;48.142;11.616;2023-05-10T03:33:45;0.55;;;0.55;;
4903;SDS011;2467;48.142;11.616;2023-05-10T03:34:24;0.77;;;0.75;;
4903;SDS011;2467;48.142;11.616;2023-05-10T03:34:57;0.82;;;0.60;;
4903;SDS011;2467;48.142;11.616;2023-05-10T03:35:28;0.60;;;0.60;;